Time;durP1;ratioP1;P1;durP2;ratioP2;P2;SDS_P1;SDS_P2;PMS_P1;PMS_P2;Temp;Humidity;BMP_temperature;BMP_pressure;BME280_temperature;BME280_humidity;BME280_pressure;Samples;Min_cycle;Max_cycle;Signal;HPM_P1;HPM_P2
2023/04/14 00:01:23;;;;;;;508.38;269.83;;;;;;;;;;5000149;28;20431;-55
2023/04/14 00:03:48;;;;;;;571.78;284.33;;;;;;;;;;4996705;28;20037;-57
2023/04/14 00:06:13;;;;;;;513.50;272.23;;;;;;;;;;4997897;28;20042;-56
2023/04/14 00:08:39;;;;;;;548.07;277.93;;;;;;;;;;4997860;28;20069;-58
2023/04/14 00:11:04;;;;;;;587.83;285.52;;;;;;;;;;4997132;28;20281;-55
2023/04/14 00:13:29;;;;;;;524.95;274.90;;;;;;;;;;4996641;28;20048;-56
2023/04/14 00:15:55;;;;;;;529.22;293.27;;;;;;;;;;4995055;28;20057;-57
2023/04/14 00:18:20;;;;;;;546.75;287.63;;;;;;;;;;4994036;28;20030;-56
2023/04/14 00:20:48;;;;;;;564.28;311.85;;;;;;;;;;4992720;28;20033;-57
2023/04/14 00:23:13;;;;;;;593.58;326.13;;;;;;;;;;4998017;28;20045;-57
2023/04/14 00:25:39;;;;;;;549.55;302.45;;;;;;;;;;4996861;28;20523;-58
2023/04/14 00:28:04;;;;;;;534.55;285.17;;;;;;;;;;4999103;28;20150;-56
2023/04/14 00:30:29;;;;;;;571.40;300.10;;;;;;;;;;4999722;28;20037;-58
2023/04/14 00:32:55;;;;;;;657.58;335.58;;;;;;;;;;4998268;28;20026;-57
2023/04/14 00:35:20;;;;;;;546.20;313.60;;;;;;;;;;4998569;28;20045;-57
2023/04/14 00:37:45;;;;;;;599.75;338.33;;;;;;;;;;4998327;28;20138;-57
2023/04/14 00:40:10;;;;;;;580.10;302.95;;;;;;;;;;5000397;28;20022;-57
2023/04/14 00:42:43;;;;;;;583.80;312.13;;;;;;;;;;4992481;28;20089;-58
2023/04/14 00:45:08;;;;;;;;;;;;;;;;;;4996774;28;20034;-57
2023/04/14 00:47:33;;;;;;;558.00;316.88;;;;;;;;;;4997714;28;19936;-57
2023/04/14 00:49:58;;;;;;;591.72;311.20;;;;;;;;;;4996174;28;20026;-56
2023/04/14 00:52:24;;;;;;;555.17;318.38;;;;;;;;;;5000403;28;20038;-56
2023/04/14 00:54:49;;;;;;;561.63;304.13;;;;;;;;;;5000455;28;20017;-56
2023/04/14 00:57:14;;;;;;;568.20;295.10;;;;;;;;;;4994936;28;20476;-58
2023/04/14 00:59:40;;;;;;;556.17;301.35;;;;;;;;;;4996193;28;20062;-57
2023/04/14 01:02:05;;;;;;;558.60;309.88;;;;;;;;;;5001017;28;20053;-57
2023/04/14 01:04:31;;;;;;;606.15;321.67;;;;;;;;;;4994955;28;20038;-57
2023/04/14 01:06:56;;;;;;;640.97;328.50;;;;;;;;;;4992372;28;20037;-56
2023/04/14 01:09:23;;;;;;;576.83;315.05;;;;;;;;;;4992411;28;20047;-56
2023/04/14 01:12:01;;;;;;;567.30;325.17;;;;;;;;;;4995883;28;20038;-57
2023/04/14 01:14:26;;;;;;;593.40;333.08;;;;;;;;;;4994673;28;20029;-57
2023/04/14 01:16:54;;;;;;;568.60;325.17;;;;;;;;;;4997835;28;20108;-57
2023/04/14 01:19:38;;;;;;;554.60;322.65;;;;;;;;;;4997441;28;20257;-57
2023/04/14 01:22:05;;;;;;;900.67;371.60;;;;;;;;;;4993862;28;20038;-55
2023/04/14 01:24:33;;;;;;;535.75;338.50;;;;;;;;;;4997731;28;20800;-58
2023/04/14 01:27:03;;;;;;;630.88;360.48;;;;;;;;;;4996490;28;20049;-57
2023/04/14 01:29:51;;;;;;;558.80;313.33;;;;;;;;;;4991519;28;20570;-57
2023/04/14 01:32:20;;;;;;;605.78;338.75;;;;;;;;;;4982571;28;20033;-56
2023/04/14 01:34:54;;;;;;;606.65;345.55;;;;;;;;;;4994524;28;20029;-57
2023/04/14 01:37:30;;;;;;;546.00;323.23;;;;;;;;;;4993830;28;20033;-58
2023/04/14 01:39:58;;;;;;;537.83;293.83;;;;;;;;;;4998322;28;20094;-57
2023/04/14 01:42:27;;;;;;;564.70;325.35;;;;;;;;;;4992186;28;20033;-57
2023/04/14 01:44:54;;;;;;;573.03;301.50;;;;;;;;;;4996098;28;20064;-57
2023/04/14 01:47:20;;;;;;;593.45;294.13;;;;;;;;;;4998240;28;20121;-57
2023/04/14 01:49:47;;;;;;;599.28;320.88;;;;;;;;;;4991678;28;20030;-57
2023/04/14 01:52:14;;;;;;;611.65;338.42;;;;;;;;;;4991591;28;20120;-57
2023/04/14 01:54:40;;;;;;;582.75;308.92;;;;;;;;;;4993191;28;20037;-57
2023/04/14 01:57:06;;;;;;;569.25;325.38;;;;;;;;;;4993036;28;20038;-55
2023/04/14 01:59:32;;;;;;;572.22;298.40;;;;;;;;;;4996801;28;20125;-56
2023/04/14 02:02:00;;;;;;;563.10;302.63;;;;;;;;;;4996127;28;20099;-57
2023/04/14 02:04:26;;;;;;;553.20;311.10;;;;;;;;;;4993868;28;20030;-58
2023/04/14 02:06:52;;;;;;;559.72;283.95;;;;;;;;;;4992613;28;20061;-58
2023/04/14 02:09:19;;;;;;;544.53;297.00;;;;;;;;;;4993354;28;20081;-57
2023/04/14 02:11:45;;;;;;;602.80;316.20;;;;;;;;;;4996764;28;20598;-58
2023/04/14 02:14:11;;;;;;;564.55;332.02;;;;;;;;;;4994968;28;20026;-58
2023/04/14 02:16:36;;;;;;;557.28;288.48;;;;;;;;;;4997811;28;20484;-58
2023/04/14 02:19:03;;;;;;;653.22;330.20;;;;;;;;;;4996324;28;20708;-58
2023/04/14 02:21:28;;;;;;;554.78;294.52;;;;;;;;;;4995507;28;20034;-57
2023/04/14 02:23:53;;;;;;;573.38;307.75;;;;;;;;;;4995278;28;20023;-57
2023/04/14 02:26:21;;;;;;;559.40;319.65;;;;;;;;;;4995264;28;20092;-58
2023/04/14 02:28:52;;;;;;;575.83;310.17;;;;;;;;;;4997018;28;20026;-58
2023/04/14 02:31:20;;;;;;;566.30;271.15;;;;;;;;;;4994477;28;20034;-58
2023/04/14 02:33:47;;;;;;;557.42;255.95;;;;;;;;;;4994967;28;20017;-57
2023/04/14 02:36:15;;;;;;;545.65;258.25;;;;;;;;;;4996491;28;20049;-56
2023/04/14 02:38:46;;;;;;;487.55;247.25;;;;;;;;;;4993574;28;20022;-55
2023/04/14 02:41:14;;;;;;;526.28;266.15;;;;;;;;;;4992020;28;20046;-57
2023/04/14 02:43:46;;;;;;;523.72;265.52;;;;;;;;;;4998609;28;20140;-57
2023/04/14 02:46:13;;;;;;;515.10;250.80;;;;;;;;;;4996183;28;20030;-58
2023/04/14 02:48:41;;;;;;;561.83;260.88;;;;;;;;;;4994111;28;20018;-57
2023/04/14 02:51:08;;;;;;;517.65;259.88;;;;;;;;;;4993664;28;20124;-55
2023/04/14 02:53:34;;;;;;;511.17;250.55;;;;;;;;;;4991151;28;20018;-57
2023/04/14 02:55:59;;;;;;;553.70;268.75;;;;;;;;;;4995557;28;20047;-57
2023/04/14 02:58:26;;;;;;;485.85;253.63;;;;;;;;;;4995759;28;20486;-58
2023/04/14 03:00:51;;;;;;;555.35;276.45;;;;;;;;;;4997534;28;20282;-58
2023/04/14 03:03:17;;;;;;;518.17;270.17;;;;;;;;;;4994893;28;20054;-57
2023/04/14 03:05:42;;;;;;;539.15;286.52;;;;;;;;;;4997998;28;20056;-58
2023/04/14 03:08:13;;;;;;;522.47;254.07;;;;;;;;;;4999890;28;20028;-57
2023/04/14 03:10:38;;;;;;;549.03;272.92;;;;;;;;;;4997327;28;20065;-58
2023/04/14 03:13:05;;;;;;;663.67;287.77;;;;;;;;;;4999233;28;20019;-57
2023/04/14 03:15:31;;;;;;;494.73;257.95;;;;;;;;;;4996881;28;20064;-58
2023/04/14 03:17:57;;;;;;;506.58;244.07;;;;;;;;;;4993490;28;20105;-57
2023/04/14 03:20:22;;;;;;;536.38;255.25;;;;;;;;;;4999554;28;20093;-55
2023/04/14 03:23:00;;;;;;;522.15;261.13;;;;;;;;;;4996526;28;20542;-57
2023/04/14 03:25:29;;;;;;;569.70;280.30;;;;;;;;;;4996611;28;20054;-58
2023/04/14 03:27:57;;;;;;;560.83;294.58;;;;;;;;;;4995413;28;20026;-57
2023/04/14 03:30:25;;;;;;;527.75;265.20;;;;;;;;;;4997806;28;20010;-57
2023/04/14 03:32:52;;;;;;;524.42;252.70;;;;;;;;;;4998838;28;20048;-57
2023/04/14 03:35:20;;;;;;;505.67;268.63;;;;;;;;;;4995667;28;20900;-55
2023/04/14 03:37:47;;;;;;;550.13;265.15;;;;;;;;;;4995478;28;20018;-57
2023/04/14 03:40:13;;;;;;;496.88;258.08;;;;;;;;;;4997399;28;20678;-57
2023/04/14 03:42:39;;;;;;;568.97;282.55;;;;;;;;;;5001139;28;20465;-57
2023/04/14 03:45:05;;;;;;;536.78;253.00;;;;;;;;;;4995000;28;20014;-57
2023/04/14 03:47:31;;;;;;;506.50;241.93;;;;;;;;;;4997180;28;20038;-57
2023/04/14 03:49:58;;;;;;;533.60;254.65;;;;;;;;;;5001494;28;20030;-57
2023/04/14 03:52:25;;;;;;;501.90;248.27;;;;;;;;;;4998969;28;21096;-57
2023/04/14 03:54:53;;;;;;;527.92;262.73;;;;;;;;;;4996800;28;20105;-56
2023/04/14 03:57:19;;;;;;;513.78;264.83;;;;;;;;;;5002330;28;20702;-57
2023/04/14 03:59:45;;;;;;;496.15;257.65;;;;;;;;;;4995660;28;20018;-57
2023/04/14 04:02:11;;;;;;;561.30;258.33;;;;;;;;;;4996349;28;20034;-57
2023/04/14 04:04:36;;;;;;;517.60;267.73;;;;;;;;;;4995588;28;20389;-57
2023/04/14 04:07:01;;;;;;;580.58;288.67;;;;;;;;;;4996329;28;20060;-57
2023/04/14 04:09:28;;;;;;;547.35;279.83;;;;;;;;;;4998893;28;20112;-57
2023/04/14 04:11:58;;;;;;;556.90;287.75;;;;;;;;;;5003721;28;20030;-57
2023/04/14 04:14:24;;;;;;;564.10;290.42;;;;;;;;;;4998127;28;20037;-59
2023/04/14 04:16:52;;;;;;;517.65;277.65;;;;;;;;;;4995235;28;20030;-57
2023/04/14 04:19:19;;;;;;;539.42;294.95;;;;;;;;;;5000602;28;20021;-57
2023/04/14 04:21:47;;;;;;;567.35;323.13;;;;;;;;;;4994784;28;20745;-56
2023/04/14 04:24:13;;;;;;;577.15;304.77;;;;;;;;;;5001284;28;20412;-58
2023/04/14 04:26:38;;;;;;;588.63;317.30;;;;;;;;;;4999533;28;20038;-56
2023/04/14 04:29:04;;;;;;;601.78;314.98;;;;;;;;;;4999131;28;20032;-57
2023/04/14 04:31:31;;;;;;;545.28;319.42;;;;;;;;;;4994055;28;20034;-57
2023/04/14 04:33:57;;;;;;;627.10;341.83;;;;;;;;;;4997461;28;20026;-57
2023/04/14 04:36:23;;;;;;;547.22;304.92;;;;;;;;;;5000089;28;20045;-58
2023/04/14 04:38:49;;;;;;;544.42;291.60;;;;;;;;;;4994564;28;20100;-56
2023/04/14 04:41:24;;;;;;;518.50;269.20;;;;;;;;;;4994079;28;20038;-57
2023/04/14 04:43:50;;;;;;;550.75;277.63;;;;;;;;;;5000684;28;20765;-56
2023/04/14 04:46:23;;;;;;;551.10;289.27;;;;;;;;;;4997263;28;20089;-58
2023/04/14 04:48:50;;;;;;;504.17;287.33;;;;;;;;;;4993349;28;20026;-55
2023/04/14 04:51:16;;;;;;;553.60;291.23;;;;;;;;;;4997778;28;20041;-57
2023/04/14 04:53:42;;;;;;;514.08;274.23;;;;;;;;;;4997871;28;20030;-58
2023/04/14 04:56:07;;;;;;;504.27;273.52;;;;;;;;;;4994952;28;20030;-58
2023/04/14 04:58:32;;;;;;;566.90;299.58;;;;;;;;;;4997637;28;20053;-57
2023/04/14 05:00:57;;;;;;;577.47;319.80;;;;;;;;;;4995822;28;20116;-56
2023/04/14 05:03:22;;;;;;;523.53;292.92;;;;;;;;;;4994099;28;20049;-56
2023/04/14 05:05:48;;;;;;;559.05;312.00;;;;;;;;;;5001780;28;20038;-56
2023/04/14 05:08:13;;;;;;;525.72;291.77;;;;;;;;;;4998829;28;20049;-58
2023/04/14 05:10:38;;;;;;;533.08;278.27;;;;;;;;;;4997067;28;20034;-55
2023/04/14 05:13:03;;;;;;;647.88;316.52;;;;;;;;;;4997172;28;20021;-58
2023/04/14 05:15:29;;;;;;;562.33;329.60;;;;;;;;;;4996362;28;20045;-58
2023/04/14 05:17:54;;;;;;;600.47;316.00;;;;;;;;;;5001461;28;20497;-57
2023/04/14 05:20:19;;;;;;;558.25;330.08;;;;;;;;;;4995503;28;20552;-56
2023/04/14 05:22:45;;;;;;;576.83;355.38;;;;;;;;;;4997906;28;20025;-58
2023/04/14 05:25:10;;;;;;;580.03;328.63;;;;;;;;;;4993162;28;20115;-56
2023/04/14 05:27:35;;;;;;;549.90;315.40;;;;;;;;;;4992749;28;20025;-57
2023/04/14 05:30:00;;;;;;;555.80;300.33;;;;;;;;;;4995572;28;20261;-58
2023/04/14 05:32:27;;;;;;;565.35;327.80;;;;;;;;;;4998693;28;20042;-55
2023/04/14 05:34:52;;;;;;;548.08;326.02;;;;;;;;;;4995852;28;20279;-57
2023/04/14 05:37:17;;;;;;;546.03;285.77;;;;;;;;;;4997586;28;20145;-55
2023/04/14 05:39:42;;;;;;;525.45;288.10;;;;;;;;;;4996312;28;20117;-57
2023/04/14 05:42:08;;;;;;;540.00;286.85;;;;;;;;;;4994203;28;20029;-57
2023/04/14 05:44:33;;;;;;;548.58;282.83;;;;;;;;;;4996456;28;20076;-55
2023/04/14 05:46:58;;;;;;;506.48;262.10;;;;;;;;;;4994160;28;21034;-61
2023/04/14 05:49:23;;;;;;;483.73;258.30;;;;;;;;;;4995299;28;20579;-57
2023/04/14 05:51:49;;;;;;;514.13;261.13;;;;;;;;;;4996486;28;20878;-58
2023/04/14 05:54:14;;;;;;;541.15;276.80;;;;;;;;;;4994663;28;20239;-57
2023/04/14 05:56:39;;;;;;;527.67;262.55;;;;;;;;;;4991987;28;20065;-56
2023/04/14 05:59:05;;;;;;;606.95;282.83;;;;;;;;;;4991708;28;20033;-56
2023/04/14 06:01:30;;;;;;;557.83;288.17;;;;;;;;;;4997411;28;20033;-55
2023/04/14 06:03:55;;;;;;;602.73;308.60;;;;;;;;;;4997158;28;20499;-57
2023/04/14 06:06:20;;;;;;;552.38;287.25;;;;;;;;;;4994085;28;20666;-57
2023/04/14 06:08:46;;;;;;;538.25;281.40;;;;;;;;;;4993498;28;20157;-55
2023/04/14 06:11:12;;;;;;;587.83;301.13;;;;;;;;;;4993452;28;20161;-56
2023/04/14 06:13:37;;;;;;;575.65;323.27;;;;;;;;;;4996699;28;20094;-57
2023/04/14 06:16:02;;;;;;;621.25;356.13;;;;;;;;;;4993114;28;20041;-54
2023/04/14 06:18:28;;;;;;;588.40;331.15;;;;;;;;;;4993739;28;20042;-56
2023/04/14 06:20:53;;;;;;;570.38;305.23;;;;;;;;;;4994001;28;20071;-56
2023/04/14 06:23:20;;;;;;;587.85;317.67;;;;;;;;;;4998359;28;20992;-58
2023/04/14 06:25:45;;;;;;;568.13;332.77;;;;;;;;;;4996428;28;20141;-56
2023/04/14 06:28:10;;;;;;;580.83;308.52;;;;;;;;;;4995378;28;20555;-56
2023/04/14 06:30:36;;;;;;;631.25;329.77;;;;;;;;;;4993192;28;20042;-56
2023/04/14 06:33:03;;;;;;;707.75;341.25;;;;;;;;;;4998311;28;20428;-56
2023/04/14 06:35:29;;;;;;;620.15;340.38;;;;;;;;;;4997653;28;20656;-55
2023/04/14 06:37:54;;;;;;;608.78;343.05;;;;;;;;;;4994978;28;20109;-54
2023/04/14 06:40:20;;;;;;;592.17;318.73;;;;;;;;;;4997624;28;20113;-57
2023/04/14 06:42:45;;;;;;;611.25;322.52;;;;;;;;;;4999018;28;20076;-57
2023/04/14 06:45:10;;;;;;;589.97;321.00;;;;;;;;;;4994830;28;20551;-57
2023/04/14 06:47:36;;;;;;;532.78;279.33;;;;;;;;;;4997076;28;20779;-57
2023/04/14 06:50:01;;;;;;;622.20;296.38;;;;;;;;;;4997306;28;20079;-57
2023/04/14 06:52:27;;;;;;;582.30;302.35;;;;;;;;;;4995011;28;20052;-57
2023/04/14 06:54:52;;;;;;;616.35;321.15;;;;;;;;;;4992622;28;20037;-58
2023/04/14 06:57:17;;;;;;;620.23;334.50;;;;;;;;;;4992741;28;20846;-60
2023/04/14 06:59:42;;;;;;;717.88;327.23;;;;;;;;;;4993976;28;20624;-57
2023/04/14 07:02:08;;;;;;;611.90;337.90;;;;;;;;;;4999802;28;20040;-57
2023/04/14 07:04:34;;;;;;;648.07;354.70;;;;;;;;;;4997426;28;20033;-57
2023/04/14 07:07:00;;;;;;;645.80;342.60;;;;;;;;;;4996942;28;20352;-57
2023/04/14 07:09:25;;;;;;;623.08;342.35;;;;;;;;;;4995276;28;20018;-57
2023/04/14 07:11:52;;;;;;;582.22;313.58;;;;;;;;;;4998558;28;20030;-55
2023/04/14 07:14:17;;;;;;;622.65;347.98;;;;;;;;;;4990687;28;20037;-56
2023/04/14 07:16:42;;;;;;;582.80;298.48;;;;;;;;;;4993212;28;20034;-56
2023/04/14 07:19:08;;;;;;;629.20;304.00;;;;;;;;;;4995232;28;20026;-56
2023/04/14 07:21:33;;;;;;;588.97;293.45;;;;;;;;;;4992662;28;20262;-57
2023/04/14 07:23:58;;;;;;;623.75;287.30;;;;;;;;;;4995401;28;20084;-57
2023/04/14 07:26:23;;;;;;;592.45;287.13;;;;;;;;;;4993411;28;20552;-58
2023/04/14 07:28:49;;;;;;;583.97;276.83;;;;;;;;;;4995296;28;20025;-57
2023/04/14 07:31:15;;;;;;;589.17;293.88;;;;;;;;;;4994131;28;20306;-57
2023/04/14 07:33:40;;;;;;;630.55;302.77;;;;;;;;;;4991347;28;20014;-57
2023/04/14 07:36:06;;;;;;;609.22;307.63;;;;;;;;;;4990822;28;20210;-57
2023/04/14 07:38:32;;;;;;;621.20;301.75;;;;;;;;;;4992400;28;20048;-58
2023/04/14 07:40:57;;;;;;;616.72;293.08;;;;;;;;;;4993686;28;20511;-57
2023/04/14 07:43:22;;;;;;;647.35;300.65;;;;;;;;;;4995960;28;20064;-55
2023/04/14 07:45:48;;;;;;;607.63;305.77;;;;;;;;;;4997692;28;20043;-57
2023/04/14 07:48:13;;;;;;;620.83;310.65;;;;;;;;;;4997849;28;20292;-57
2023/04/14 07:50:38;;;;;;;618.72;315.08;;;;;;;;;;4998339;28;20042;-57
2023/04/14 07:53:03;;;;;;;737.28;325.40;;;;;;;;;;4996292;28;20018;-57
2023/04/14 07:55:29;;;;;;;645.80;293.63;;;;;;;;;;4999551;28;20046;-57
2023/04/14 07:57:54;;;;;;;631.92;299.23;;;;;;;;;;4997538;28;20265;-58
2023/04/14 08:00:20;;;;;;;624.85;312.77;;;;;;;;;;4993937;28;20359;-56
2023/04/14 08:02:45;;;;;;;663.53;309.40;;;;;;;;;;5000783;28;20192;-57
2023/04/14 08:05:11;;;;;;;638.17;300.25;;;;;;;;;;4996113;28;20018;-57
2023/04/14 08:07:37;;;;;;;660.60;307.50;;;;;;;;;;4998471;28;20171;-58
2023/04/14 08:10:02;;;;;;;692.55;322.38;;;;;;;;;;4996225;28;20123;-58
2023/04/14 08:12:28;;;;;;;666.10;329.45;;;;;;;;;;5000890;28;20112;-57
2023/04/14 08:14:55;;;;;;;689.38;331.05;;;;;;;;;;4998601;28;20136;-57
2023/04/14 08:17:21;;;;;;;659.72;323.35;;;;;;;;;;5003331;28;20418;-57
2023/04/14 08:19:46;;;;;;;645.65;320.50;;;;;;;;;;4998700;28;20640;-57
2023/04/14 08:22:11;;;;;;;676.00;330.88;;;;;;;;;;4994006;28;20113;-57
2023/04/14 08:24:37;;;;;;;645.97;306.25;;;;;;;;;;4996373;28;20052;-58
2023/04/14 08:27:02;;;;;;;685.67;326.38;;;;;;;;;;4997471;28;20050;-57
2023/04/14 08:29:27;;;;;;;709.88;328.80;;;;;;;;;;4999457;28;20116;-58
2023/04/14 08:31:52;;;;;;;695.45;331.02;;;;;;;;;;4999108;28;20034;-58
2023/04/14 08:34:18;;;;;;;612.43;298.23;;;;;;;;;;4996483;28;20058;-58
2023/04/14 08:36:43;;;;;;;658.75;297.15;;;;;;;;;;5001464;28;20990;-57
2023/04/14 08:39:08;;;;;;;652.22;293.30;;;;;;;;;;4999186;28;20022;-57
2023/04/14 08:41:34;;;;;;;697.60;321.47;;;;;;;;;;4995818;28;20789;-58
2023/04/14 08:44:00;;;;;;;678.05;319.02;;;;;;;;;;4996197;28;20414;-57
2023/04/14 08:46:26;;;;;;;660.42;311.23;;;;;;;;;;4996348;28;20026;-57
2023/04/14 08:48:52;;;;;;;672.47;310.13;;;;;;;;;;4997928;28;20041;-55
2023/04/14 08:51:28;;;;;;;640.80;299.48;;;;;;;;;;4997819;28;20037;-57
2023/04/14 08:53:54;;;;;;;673.75;303.88;;;;;;;;;;4996322;28;20026;-58
2023/04/14 08:56:23;;;;;;;645.67;304.60;;;;;;;;;;4993741;28;20103;-58
2023/04/14 08:58:49;;;;;;;647.72;303.13;;;;;;;;;;4994416;28;20048;-58
2023/04/14 09:01:14;;;;;;;697.25;314.85;;;;;;;;;;4995260;28;20042;-57
2023/04/14 09:03:40;;;;;;;664.53;306.00;;;;;;;;;;4992177;28;20673;-57
2023/04/14 09:06:05;;;;;;;682.08;319.83;;;;;;;;;;4996162;28;20034;-57
2023/04/14 09:08:33;;;;;;;698.35;322.40;;;;;;;;;;4992697;28;20041;-58
2023/04/14 09:11:02;;;;;;;711.42;328.65;;;;;;;;;;4995330;28;20454;-57
2023/04/14 09:13:28;;;;;;;716.55;320.98;;;;;;;;;;4996601;28;20052;-55
2023/04/14 09:15:54;;;;;;;685.40;309.95;;;;;;;;;;4996174;28;20474;-57
2023/04/14 09:18:20;;;;;;;629.08;293.33;;;;;;;;;;4996976;28;20282;-57
2023/04/14 09:20:46;;;;;;;651.88;282.10;;;;;;;;;;4998506;28;20045;-57
2023/04/14 09:23:13;;;;;;;658.53;292.55;;;;;;;;;;4995412;28;20455;-57
2023/04/14 09:25:39;;;;;;;639.33;297.85;;;;;;;;;;4995698;28;20128;-57
2023/04/14 09:28:04;;;;;;;686.13;306.77;;;;;;;;;;4995954;28;20022;-58
2023/04/14 09:30:30;;;;;;;643.83;296.58;;;;;;;;;;4998450;28;20045;-57
2023/04/14 09:32:55;;;;;;;744.33;302.50;;;;;;;;;;4996241;28;20037;-56
2023/04/14 09:35:21;;;;;;;645.65;291.63;;;;;;;;;;4996078;28;20030;-58
2023/04/14 09:37:47;;;;;;;647.40;295.55;;;;;;;;;;4995193;28;20022;-56
2023/04/14 09:40:28;;;;;;;695.90;309.00;;;;;;;;;;4996721;28;20436;-58
2023/04/14 09:42:54;;;;;;;724.15;308.48;;;;;;;;;;4998508;28;20025;-56
2023/04/14 09:45:21;;;;;;;721.00;325.42;;;;;;;;;;4997332;28;20022;-58
2023/04/14 09:47:47;;;;;;;661.58;280.90;;;;;;;;;;4993090;28;20022;-55
2023/04/14 09:50:13;;;;;;;649.35;286.60;;;;;;;;;;4995063;28;20026;-57
2023/04/14 09:52:39;;;;;;;676.15;292.10;;;;;;;;;;5000434;28;20052;-56
2023/04/14 09:55:14;;;;;;;671.10;296.85;;;;;;;;;;4998813;28;20029;-57
2023/04/14 09:57:40;;;;;;;694.80;315.02;;;;;;;;;;4995627;28;20961;-57
2023/04/14 10:00:15;;;;;;;672.45;290.35;;;;;;;;;;4993143;28;20022;-57
2023/04/14 10:02:50;;;;;;;670.60;292.27;;;;;;;;;;4997291;28;20869;-57
2023/04/14 10:05:17;;;;;;;646.83;287.27;;;;;;;;;;4997916;28;20022;-57
2023/04/14 10:07:43;;;;;;;642.90;286.20;;;;;;;;;;4998611;28;20105;-57
2023/04/14 10:10:14;;;;;;;630.15;278.25;;;;;;;;;;4993369;28;20045;-58
2023/04/14 10:12:45;;;;;;;629.90;275.45;;;;;;;;;;4994410;28;20037;-57
2023/04/14 10:15:11;;;;;;;632.40;269.30;;;;;;;;;;4991232;28;20029;-55
2023/04/14 10:17:37;;;;;;;642.35;272.67;;;;;;;;;;4996041;28;20280;-58
2023/04/14 10:20:03;;;;;;;708.97;294.40;;;;;;;;;;4993827;28;20696;-57
2023/04/14 10:22:29;;;;;;;713.08;306.75;;;;;;;;;;4991714;28;20486;-58
2023/04/14 10:24:55;;;;;;;669.83;300.00;;;;;;;;;;5000646;28;20033;-58
2023/04/14 10:27:21;;;;;;;660.08;287.85;;;;;;;;;;4995628;28;20045;-59
2023/04/14 10:29:46;;;;;;;683.83;304.88;;;;;;;;;;4994295;28;20022;-57
2023/04/14 10:32:13;;;;;;;677.53;295.30;;;;;;;;;;4997582;28;20049;-58
2023/04/14 10:34:52;;;;;;;724.80;318.25;;;;;;;;;;4996428;28;20033;-56
2023/04/14 10:37:17;;;;;;;659.97;288.17;;;;;;;;;;4997267;28;20038;-56
2023/04/14 10:39:50;;;;;;;687.85;289.27;;;;;;;;;;4991850;28;20096;-58
2023/04/14 10:42:15;;;;;;;690.05;303.63;;;;;;;;;;4996619;28;20089;-58
2023/04/14 10:44:40;;;;;;;704.58;308.48;;;;;;;;;;4993250;28;20053;-57
2023/04/14 10:47:08;;;;;;;708.92;310.58;;;;;;;;;;5000048;28;20041;-60
2023/04/14 10:49:34;;;;;;;725.13;309.83;;;;;;;;;;4998953;28;20081;-58
2023/04/14 10:52:00;;;;;;;724.30;300.67;;;;;;;;;;4994202;28;20913;-58
2023/04/14 10:54:25;;;;;;;715.17;309.13;;;;;;;;;;4993403;28;20722;-58
2023/04/14 10:57:13;;;;;;;715.15;322.33;;;;;;;;;;4993680;28;20269;-59
2023/04/14 10:59:42;;;;;;;955.42;343.42;;;;;;;;;;4993381;28;20125;-59
2023/04/14 11:02:26;;;;;;;747.35;321.15;;;;;;;;;;4995749;28;20310;-57
2023/04/14 11:05:04;;;;;;;705.28;316.52;;;;;;;;;;4992994;28;20022;-57
2023/04/14 11:07:30;;;;;;;752.72;335.60;;;;;;;;;;4994130;28;20042;-58
2023/04/14 11:10:14;;;;;;;758.13;330.33;;;;;;;;;;4997822;28;20022;-58
2023/04/14 11:12:42;;;;;;;730.40;323.67;;;;;;;;;;4996557;28;20045;-58
2023/04/14 11:15:08;;;;;;;740.63;324.95;;;;;;;;;;4996339;28;20022;-60
2023/04/14 11:17:37;;;;;;;750.33;307.63;;;;;;;;;;4994383;28;20045;-56
2023/04/14 11:20:12;;;;;;;751.28;314.27;;;;;;;;;;4994586;28;20028;-57
2023/04/14 11:22:43;;;;;;;706.92;280.25;;;;;;;;;;4998505;28;20144;-56
2023/04/14 11:25:12;;;;;;;665.60;279.50;;;;;;;;;;5000020;28;20033;-59
2023/04/14 11:27:38;;;;;;;721.53;305.55;;;;;;;;;;4997807;28;20096;-57
2023/04/14 11:30:05;;;;;;;742.50;299.00;;;;;;;;;;4997888;28;20025;-57
2023/04/14 11:32:43;;;;;;;769.72;318.02;;;;;;;;;;4999147;28;20079;-55
2023/04/14 11:35:08;;;;;;;752.65;309.38;;;;;;;;;;4996586;28;20034;-58
2023/04/14 11:37:35;;;;;;;759.58;314.48;;;;;;;;;;4999208;28;20799;-57
2023/04/14 11:40:00;;;;;;;730.45;304.00;;;;;;;;;;4997866;28;20511;-58
2023/04/14 11:42:26;;;;;;;703.75;284.02;;;;;;;;;;4996641;28;20506;-58
2023/04/14 11:44:58;;;;;;;730.15;304.77;;;;;;;;;;4996732;28;20034;-58
2023/04/14 11:47:23;;;;;;;772.72;316.67;;;;;;;;;;4994099;28;20520;-58
2023/04/14 11:49:48;;;;;;;726.47;302.03;;;;;;;;;;5000807;28;20080;-57
2023/04/14 11:52:14;;;;;;;716.63;300.23;;;;;;;;;;5001640;28;20699;-56
2023/04/14 11:54:39;;;;;;;692.53;283.40;;;;;;;;;;4995166;28;20291;-56
2023/04/14 11:57:08;;;;;;;720.45;288.98;;;;;;;;;;4998317;28;20265;-57
2023/04/14 11:59:41;;;;;;;964.63;310.92;;;;;;;;;;4996548;28;20030;-57
2023/04/14 12:02:12;;;;;;;716.80;286.77;;;;;;;;;;4994872;28;20443;-57
2023/04/14 12:04:38;;;;;;;695.78;267.55;;;;;;;;;;5001126;28;20030;-57
2023/04/14 12:07:08;;;;;;;674.47;261.00;;;;;;;;;;4998781;28;20037;-57
2023/04/14 12:09:33;;;;;;;629.95;251.18;;;;;;;;;;5001882;28;20023;-57
2023/04/14 12:11:59;;;;;;;616.70;243.83;;;;;;;;;;5011731;28;20066;-56
2023/04/14 12:14:24;;;;;;;621.77;255.60;;;;;;;;;;5000517;28;20834;-56
2023/04/14 12:16:50;;;;;;;673.22;268.83;;;;;;;;;;5002086;28;21286;-58
2023/04/14 12:19:15;;;;;;;644.10;258.27;;;;;;;;;;4997595;28;20045;-56
2023/04/14 12:21:41;;;;;;;638.38;266.73;;;;;;;;;;5010137;28;20040;-57
2023/04/14 12:24:06;;;;;;;712.78;272.52;;;;;;;;;;4996136;28;20845;-58
2023/04/14 12:26:32;;;;;;;681.83;271.63;;;;;;;;;;5001122;28;20041;-57
2023/04/14 12:28:58;;;;;;;699.53;266.88;;;;;;;;;;5002300;28;20019;-56
2023/04/14 12:31:28;;;;;;;662.42;266.63;;;;;;;;;;5009597;28;20081;-58
2023/04/14 12:33:58;;;;;;;688.60;274.20;;;;;;;;;;4997354;28;20046;-56
2023/04/14 12:36:23;;;;;;;707.00;274.48;;;;;;;;;;4995478;28;20116;-58
2023/04/14 12:38:49;;;;;;;682.03;268.65;;;;;;;;;;5002460;28;20030;-58
2023/04/14 12:41:21;;;;;;;698.13;273.17;;;;;;;;;;5013099;28;20034;-56
2023/04/14 12:43:47;;;;;;;652.47;265.92;;;;;;;;;;4997699;28;20024;-57
2023/04/14 12:46:21;;;;;;;677.05;272.90;;;;;;;;;;4996853;28;20033;-56
2023/04/14 12:48:47;;;;;;;722.53;281.35;;;;;;;;;;4996701;28;20038;-55
2023/04/14 12:51:14;;;;;;;693.25;281.52;;;;;;;;;;4993029;28;20034;-57
2023/04/14 12:53:40;;;;;;;739.45;274.95;;;;;;;;;;4996400;28;20029;-58
2023/04/14 12:56:06;;;;;;;697.63;283.27;;;;;;;;;;4998761;28;20045;-58
2023/04/14 12:58:32;;;;;;;679.28;281.27;;;;;;;;;;4997200;28;20034;-58
2023/04/14 13:01:00;;;;;;;721.80;280.42;;;;;;;;;;4997589;28;20104;-59
2023/04/14 13:03:36;;;;;;;693.88;280.90;;;;;;;;;;4999297;28;20034;-57
2023/04/14 13:06:01;;;;;;;702.95;276.10;;;;;;;;;;4996512;28;20033;-56
2023/04/14 13:08:26;;;;;;;682.60;280.35;;;;;;;;;;4995952;28;20071;-56
2023/04/14 13:10:53;;;;;;;662.80;267.90;;;;;;;;;;4997515;28;20645;-57
2023/04/14 13:13:18;;;;;;;673.28;268.60;;;;;;;;;;4991191;28;20025;-58
2023/04/14 13:15:43;;;;;;;641.67;262.63;;;;;;;;;;4996041;28;20093;-58
2023/04/14 13:18:08;;;;;;;703.37;279.03;;;;;;;;;;4994981;28;20266;-58
2023/04/14 13:20:34;;;;;;;647.28;271.48;;;;;;;;;;4993050;28;20261;-58
2023/04/14 13:22:59;;;;;;;744.97;262.65;;;;;;;;;;4999947;28;20360;-56
2023/04/14 13:25:24;;;;;;;628.60;251.93;;;;;;;;;;4993750;28;20124;-58
2023/04/14 13:27:50;;;;;;;643.17;263.02;;;;;;;;;;4996266;28;20846;-58
2023/04/14 13:30:15;;;;;;;639.40;246.73;;;;;;;;;;4995013;28;20022;-57
2023/04/14 13:32:41;;;;;;;655.50;268.67;;;;;;;;;;4992859;28;20420;-57
2023/04/14 13:35:06;;;;;;;698.75;276.45;;;;;;;;;;4995176;28;20077;-58
2023/04/14 13:37:31;;;;;;;685.88;271.88;;;;;;;;;;4994631;28;20689;-55
2023/04/14 13:39:57;;;;;;;690.20;283.00;;;;;;;;;;4995586;28;20025;-58
2023/04/14 13:42:22;;;;;;;672.97;283.57;;;;;;;;;;5000533;28;20264;-56
2023/04/14 13:44:48;;;;;;;698.10;287.03;;;;;;;;;;4995707;28;20253;-56
2023/04/14 13:47:13;;;;;;;695.53;298.80;;;;;;;;;;4995531;28;20368;-58
2023/04/14 13:49:38;;;;;;;729.10;302.48;;;;;;;;;;4993348;28;20664;-58
2023/04/14 13:52:04;;;;;;;689.23;291.67;;;;;;;;;;4995586;28;20034;-58